Time;durP1;ratioP1;P1;durP2;ratioP2;P2;SDS_P1;SDS_P2;PMS_P1;PMS_P2;Temp;Humidity;BMP_temperature;BMP_pressure;BME280_temperature;BME280_humidity;BME280_pressure;Samples;Min_cycle;Max_cycle;Signal;HPM_P1;HPM_P2
2022/07/12 00:01:07;;;;;;;1.80;1.40;;;12.70;99.90;;;;;;5013164;28;20033;-73
2022/07/12 00:03:33;;;;;;;1.40;1.30;;;12.60;99.90;;;;;;5012292;28;20033;-73
2022/07/12 00:05:59;;;;;;;1.77;1.30;;;12.60;99.90;;;;;;5013681;28;20036;-73
2022/07/12 00:08:25;;;;;;;2.05;1.30;;;12.50;99.90;;;;;;5013506;28;20026;-73
2022/07/12 00:10:51;;;;;;;1.85;1.30;;;12.40;99.90;;;;;;5008348;28;20030;-73
2022/07/12 00:13:17;;;;;;;1.88;1.30;;;12.40;99.90;;;;;;5009466;28;20033;-73
2022/07/12 00:15:43;;;;;;;1.70;1.60;;;12.50;99.90;;;;;;5012222;28;20018;-73
2022/07/12 00:18:09;;;;;;;1.00;1.00;;;12.50;99.90;;;;;;5013284;28;20030;-73
2022/07/12 00:20:36;;;;;;;2.50;1.58;;;12.60;99.90;;;;;;5012800;28;20044;-73
2022/07/12 00:23:02;;;;;;;3.45;1.40;;;12.40;99.90;;;;;;5013301;28;20034;-73
2022/07/12 00:25:28;;;;;;;1.40;1.30;;;12.70;99.90;;;;;;5013391;28;20030;-73
2022/07/12 00:27:53;;;;;;;2.03;1.30;;;12.70;99.90;;;;;;5013104;28;20037;-73
2022/07/12 00:30:19;;;;;;;2.13;1.55;;;12.70;99.90;;;;;;5012643;28;20101;-72
2022/07/12 00:32:45;;;;;;;1.95;1.40;;;12.70;99.90;;;;;;5013531;28;20022;-73
2022/07/12 00:35:11;;;;;;;1.80;1.40;;;12.50;99.90;;;;;;5011838;28;20018;-73
2022/07/12 00:37:37;;;;;;;1.30;1.20;;;12.50;99.90;;;;;;5013175;28;20026;-73
2022/07/12 00:40:06;;;;;;;2.70;1.38;;;12.80;99.90;;;;;;5013139;28;20502;-73
2022/07/12 00:42:32;;;;;;;3.05;1.30;;;12.60;99.90;;;;;;5012492;28;20113;-72
2022/07/12 00:44:58;;;;;;;1.67;1.30;;;12.60;99.90;;;;;;5012936;28;20109;-73
2022/07/12 00:47:36;;;;;;;1.77;1.50;;;12.60;99.90;;;;;;5010507;28;20125;-73
2022/07/12 00:50:09;;;;;;;2.33;1.50;;;12.60;99.90;;;;;;5012774;28;20116;-73
2022/07/12 00:52:36;;;;;;;2.75;1.40;;;12.60;99.90;;;;;;5012274;28;20554;-72
2022/07/12 00:55:06;;;;;;;2.55;1.45;;;12.30;99.90;;;;;;5012717;28;20392;-73
2022/07/12 00:57:32;;;;;;;1.88;1.40;;;12.20;99.90;;;;;;5011379;28;20052;-72
2022/07/12 00:59:58;;;;;;;2.17;1.42;;;12.20;99.90;;;;;;5012620;28;20029;-73
2022/07/12 01:02:24;;;;;;;2.13;1.58;;;12.40;99.90;;;;;;5012204;28;20040;-72
2022/07/12 01:04:53;;;;;;;1.52;1.42;;;12.50;99.90;;;;;;5017443;28;20033;-72
2022/07/12 01:07:18;;;;;;;1.55;1.40;;;12.50;99.90;;;;;;5016305;28;20438;-73
2022/07/12 01:09:44;;;;;;;3.38;1.60;;;12.40;99.90;;;;;;5015716;28;20036;-73
2022/07/12 01:12:10;;;;;;;3.03;1.52;;;12.50;99.90;;;;;;5021903;28;20075;-72
2022/07/12 01:14:39;;;;;;;1.48;1.38;;;12.40;99.90;;;;;;5036089;28;20033;-72
2022/07/12 01:17:06;;;;;;;1.98;1.67;;;12.60;99.90;;;;;;5034530;28;20048;-73
2022/07/12 01:19:34;;;;;;;2.50;1.85;;;12.40;99.90;;;;;;5034241;28;20475;-72
2022/07/12 01:22:02;;;;;;;3.63;1.52;;;12.20;99.90;;;;;;5034511;28;20036;-73
2022/07/12 01:24:28;;;;;;;1.98;1.77;;;12.20;99.90;;;;;;5035058;28;20072;-72
2022/07/12 01:26:53;;;;;;;2.22;1.90;;;12.00;99.90;;;;;;5011437;28;20030;-72
2022/07/12 01:29:19;;;;;;;2.38;1.90;;;11.80;99.90;;;;;;5010143;28;20029;-72
2022/07/12 01:31:46;;;;;;;2.00;1.80;;;11.60;99.90;;;;;;5014575;28;20018;-73
2022/07/12 01:34:12;;;;;;;1.60;1.50;;;11.50;99.90;;;;;;5012182;28;20433;-72
2022/07/12 01:36:40;;;;;;;1.40;1.30;;;11.70;99.90;;;;;;5012764;28;20068;-73
2022/07/12 01:39:05;;;;;;;1.83;1.30;;;11.90;99.90;;;;;;5025079;28;20068;-73
2022/07/12 01:41:32;;;;;;;2.13;1.45;;;11.90;99.90;;;;;;5031154;28;20053;-73
2022/07/12 01:43:58;;;;;;;1.73;1.50;;;12.00;99.90;;;;;;5031607;28;20387;-73
2022/07/12 01:46:24;;;;;;;1.42;1.33;;;12.00;99.90;;;;;;5030419;28;20139;-73
2022/07/12 01:48:49;;;;;;;1.50;1.40;;;12.00;99.90;;;;;;5030461;28;20631;-73
2022/07/12 01:51:15;;;;;;;2.42;1.80;;;11.80;99.90;;;;;;5022800;28;20026;-72
2022/07/12 01:53:41;;;;;;;4.22;1.83;;;11.40;99.90;;;;;;5011903;28;20026;-73
2022/07/12 01:56:06;;;;;;;2.60;2.00;;;11.10;99.90;;;;;;5011722;28;20026;-73
2022/07/12 01:58:32;;;;;;;1.50;1.40;;;10.90;99.90;;;;;;5011721;28;20033;-73
2022/07/12 02:00:58;;;;;;;3.03;1.60;;;11.10;99.90;;;;;;5006599;28;20053;-72
2022/07/12 02:03:24;;;;;;;1.90;1.70;;;11.10;99.90;;;;;;5006684;28;20116;-73
2022/07/12 02:05:50;;;;;;;2.35;1.42;;;11.20;99.90;;;;;;5007065;28;20034;-72
2022/07/12 02:08:16;;;;;;;1.65;1.30;;;11.30;99.90;;;;;;5006639;28;20022;-73
2022/07/12 02:10:43;;;;;;;1.42;1.30;;;11.50;99.90;;;;;;5011136;28;20373;-73
2022/07/12 02:13:08;;;;;;;3.22;1.40;;;11.70;99.90;;;;;;5025452;28;20107;-73
2022/07/12 02:15:34;;;;;;;2.45;1.35;;;11.60;99.90;;;;;;5032831;28;20021;-72
2022/07/12 02:17:59;;;;;;;1.48;1.25;;;11.70;99.90;;;;;;5031908;28;20033;-72
2022/07/12 02:20:25;;;;;;;1.48;1.38;;;11.60;99.90;;;;;;5030745;28;20021;-72
2022/07/12 02:22:51;;;;;;;1.70;1.50;;;11.50;99.90;;;;;;5029932;28;20033;-73
2022/07/12 02:25:16;;;;;;;2.90;1.70;;;11.50;99.90;;;;;;5031059;28;20080;-73
2022/07/12 02:27:43;;;;;;;2.45;1.70;;;11.60;99.90;;;;;;5031288;28;20083;-73
2022/07/12 02:30:10;;;;;;;2.47;1.65;;;11.70;99.90;;;;;;5031186;28;20477;-73
2022/07/12 02:32:36;;;;;;;2.33;1.50;;;11.70;99.90;;;;;;5029478;28;20076;-73
2022/07/12 02:35:03;;;;;;;3.65;1.55;;;11.60;99.90;;;;;;5031151;28;20025;-73
2022/07/12 02:37:29;;;;;;;3.50;1.90;;;11.60;99.90;;;;;;5031093;28;20025;-73
2022/07/12 02:40:52;;;;;;;2.95;1.88;;;11.60;99.90;;;;;;5030964;28;20037;-72
2022/07/12 02:42:40;;;;;;;3.15;1.98;;;11.70;99.90;;;;;;5030966;28;20523;-73
2022/07/12 02:45:06;;;;;;;3.60;2.15;;;11.90;99.90;;;;;;5029874;28;20034;-73
2022/07/12 02:47:31;;;;;;;2.30;2.08;;;11.60;99.90;;;;;;5015698;28;20582;-73
2022/07/12 02:49:58;;;;;;;2.10;1.90;;;11.70;99.90;;;;;;5014962;28;20045;-73
2022/07/12 02:52:24;;;;;;;2.53;2.33;;;11.70;99.90;;;;;;5013229;28;20021;-73
2022/07/12 02:54:50;;;;;;;3.63;2.30;;;11.60;99.90;;;;;;5014921;28;20503;-73
2022/07/12 02:57:15;;;;;;;2.75;1.88;;;11.30;99.90;;;;;;5014801;28;20552;-73
2022/07/12 02:59:41;;;;;;;3.33;2.55;;;11.50;99.90;;;;;;5013754;28;20030;-73
2022/07/12 03:02:06;;;;;;;3.38;2.20;;;11.60;99.90;;;;;;5014223;28;20447;-72
2022/07/12 03:04:32;;;;;;;3.45;2.10;;;11.50;99.90;;;;;;5015380;28;20034;-73
2022/07/12 03:06:58;;;;;;;2.70;2.50;;;11.40;99.90;;;;;;5014691;28;20365;-73
2022/07/12 03:09:23;;;;;;;3.65;2.90;;;11.40;99.90;;;;;;5013487;28;20496;-73
2022/07/12 03:11:49;;;;;;;4.32;2.13;;;11.10;99.90;;;;;;5013984;28;20026;-73
2022/07/12 03:14:14;;;;;;;3.78;1.95;;;11.40;99.90;;;;;;5014644;28;20033;-73
2022/07/12 03:16:40;;;;;;;3.90;2.22;;;11.50;99.90;;;;;;5014545;28;20400;-73
2022/07/12 03:19:05;;;;;;;2.30;2.00;;;11.50;99.90;;;;;;5014615;28;20034;-72
2022/07/12 03:21:31;;;;;;;3.13;2.38;;;11.40;99.90;;;;;;5013724;28;20117;-72
2022/07/12 03:23:57;;;;;;;3.30;2.15;;;11.10;99.90;;;;;;5014341;28;20041;-73
2022/07/12 03:26:23;;;;;;;2.35;2.15;;;11.10;99.90;;;;;;5014408;28;20022;-73
2022/07/12 03:28:48;;;;;;;3.20;2.20;;;11.10;99.90;;;;;;5014274;28;20053;-73
2022/07/12 03:31:14;;;;;;;3.33;2.55;;;11.20;99.90;;;;;;5012400;28;20021;-73
2022/07/12 03:33:39;;;;;;;2.38;2.17;;;11.00;99.90;;;;;;5014384;28;20034;-73
2022/07/12 03:36:08;;;;;;;2.35;2.15;;;10.70;99.90;;;;;;5018048;28;20456;-73
2022/07/12 03:38:34;;;;;;;2.72;2.53;;;10.50;99.90;;;;;;5033899;28;20030;-73
2022/07/12 03:41:00;;;;;;;2.28;2.00;;;10.40;99.90;;;;;;5033211;28;20506;-73
2022/07/12 03:43:26;;;;;;;2.13;1.92;;;10.60;99.90;;;;;;5033952;28;20223;-73
2022/07/12 03:45:51;;;;;;;4.00;2.20;;;11.00;99.90;;;;;;5033764;28;20022;-73
2022/07/12 03:48:17;;;;;;;3.13;1.80;;;11.10;99.90;;;;;;5033659;28;20048;-73
2022/07/12 03:50:43;;;;;;;3.40;2.10;;;10.90;99.90;;;;;;5023913;28;20073;-72
2022/07/12 03:53:08;;;;;;;2.40;1.70;;;11.00;99.90;;;;;;5013905;28;20029;-73
2022/07/12 03:55:34;;;;;;;5.25;2.22;;;11.20;99.90;;;;;;5013749;28;20030;-73
2022/07/12 03:57:59;;;;;;;4.57;2.20;;;11.20;99.90;;;;;;5012053;28;20117;-73
2022/07/12 04:00:25;;;;;;;2.83;2.55;;;11.40;99.90;;;;;;5013108;28;20081;-72
2022/07/12 04:02:53;;;;;;;2.53;2.22;;;11.50;99.90;;;;;;5013813;28;20058;-72
2022/07/12 04:05:19;;;;;;;4.50;2.53;;;11.40;99.90;;;;;;5013446;28;20029;-72
2022/07/12 04:07:45;;;;;;;5.20;2.60;;;11.50;99.90;;;;;;5013680;28;20030;-73
2022/07/12 04:10:10;;;;;;;4.25;2.72;;;11.40;99.90;;;;;;5013238;28;20073;-72
2022/07/12 04:12:36;;;;;;;5.07;2.90;;;11.30;99.90;;;;;;5013417;28;20025;-73
2022/07/12 04:15:03;;;;;;;5.35;2.55;;;11.60;99.90;;;;;;5013526;28;20049;-72
2022/07/12 04:17:29;;;;;;;4.43;1.92;;;11.80;99.90;;;;;;5013420;28;20025;-73
2022/07/12 04:19:54;;;;;;;3.05;2.30;;;11.60;99.90;;;;;;5013214;28;20029;-73
2022/07/12 04:22:20;;;;;;;4.85;2.42;;;11.80;99.90;;;;;;5012741;28;20026;-73
2022/07/12 04:24:45;;;;;;;2.85;2.45;;;11.70;99.90;;;;;;5013180;28;20087;-72
2022/07/12 04:27:11;;;;;;;5.65;2.83;;;11.70;99.90;;;;;;5013601;28;20032;-72
2022/07/12 04:29:37;;;;;;;4.20;2.78;;;11.90;99.90;;;;;;5013150;28;20021;-73
2022/07/12 04:32:03;;;;;;;3.28;2.97;;;12.20;99.90;;;;;;5012921;28;20022;-73
2022/07/12 04:34:28;;;;;;;2.88;2.50;;;12.20;99.90;;;;;;5012988;28;20018;-73
2022/07/12 04:36:54;;;;;;;3.72;2.42;;;12.10;99.90;;;;;;5013079;28;20487;-73
2022/07/12 04:39:20;;;;;;;2.95;2.10;;;11.90;99.90;;;;;;5013087;28;20084;-72
2022/07/12 04:41:46;;;;;;;3.53;2.33;;;12.00;99.90;;;;;;5012561;28;20030;-73
2022/07/12 04:44:11;;;;;;;3.42;2.10;;;11.90;99.90;;;;;;5012811;28;20108;-72
2022/07/12 04:46:37;;;;;;;6.78;2.45;;;12.00;99.90;;;;;;5012949;28;20106;-72
2022/07/12 04:49:02;;;;;;;5.13;2.67;;;12.20;99.90;;;;;;5012737;28;20036;-73
2022/07/12 04:51:28;;;;;;;4.03;2.55;;;12.40;99.90;;;;;;5012216;28;20022;-73
2022/07/12 04:53:54;;;;;;;5.55;3.15;;;12.40;99.90;;;;;;5012757;28;20472;-72
2022/07/12 04:56:19;;;;;;;4.18;2.78;;;12.70;99.90;;;;;;5012809;28;20392;-72
2022/07/12 04:58:45;;;;;;;3.65;2.38;;;12.70;99.90;;;;;;5012698;28;20033;-72
2022/07/12 05:01:10;;;;;;;4.47;2.63;;;12.90;99.90;;;;;;5012032;28;20114;-73
2022/07/12 05:03:36;;;;;;;6.53;2.50;;;13.30;99.90;;;;;;5012908;28;20073;-73
2022/07/12 05:06:02;;;;;;;6.50;2.60;;;13.20;99.90;;;;;;5012534;28;20087;-73
2022/07/12 05:08:27;;;;;;;4.90;2.70;;;13.40;99.90;;;;;;5012812;28;20049;-73
2022/07/12 05:10:53;;;;;;;3.95;2.03;;;13.20;99.90;;;;;;5011152;28;20018;-73
2022/07/12 05:13:18;;;;;;;3.75;2.35;;;13.40;99.90;;;;;;5011311;28;20080;-73
2022/07/12 05:15:44;;;;;;;3.28;2.95;;;13.40;99.90;;;;;;5013092;28;20499;-73
2022/07/12 05:18:09;;;;;;;4.40;2.67;;;13.40;99.90;;;;;;5012854;28;20109;-73
2022/07/12 05:20:35;;;;;;;14.07;8.60;;;13.50;99.90;;;;;;5011733;28;20485;-73
2022/07/12 05:23:01;;;;;;;19.92;16.92;;;13.60;99.90;;;;;;5012217;28;20030;-73
2022/07/12 05:25:27;;;;;;;9.25;6.15;;;13.40;99.90;;;;;;5012172;28;20037;-73
2022/07/12 05:27:52;;;;;;;5.45;3.88;;;13.60;99.90;;;;;;5012185;28;20038;-73
2022/07/12 05:30:18;;;;;;;4.00;3.50;;;13.80;99.90;;;;;;5011551;28;20033;-73
2022/07/12 05:32:43;;;;;;;4.75;2.67;;;14.00;99.90;;;;;;5012039;28;20022;-73
2022/07/12 05:35:09;;;;;;;3.13;2.40;;;14.10;99.90;;;;;;5012245;28;20026;-73
2022/07/12 05:37:34;;;;;;;3.40;2.10;;;13.90;99.90;;;;;;5012035;28;20456;-73
2022/07/12 05:40:00;;;;;;;2.72;2.17;;;14.20;99.90;;;;;;5012034;28;20104;-72
2022/07/12 05:42:26;;;;;;;2.38;2.10;;;14.30;99.90;;;;;;5010065;28;20030;-72
2022/07/12 05:44:51;;;;;;;3.22;2.10;;;14.50;99.90;;;;;;5010645;28;20030;-73
2022/07/12 05:47:17;;;;;;;2.30;2.05;;;14.40;99.90;;;;;;5011690;28;20400;-73
2022/07/12 05:49:42;;;;;;;2.30;2.10;;;14.40;99.90;;;;;;5011851;28;20033;-73
2022/07/12 05:54:52;;;;;;;2.42;2.22;;;14.50;99.90;;;;;;5012233;28;20080;-72
2022/07/12 05:57:18;;;;;;;2.20;2.00;;;14.50;99.90;;;;;;5011769;28;20440;-73
2022/07/12 05:59:44;;;;;;;1.88;1.63;;;14.70;99.90;;;;;;5010610;28;20377;-73
2022/07/12 06:02:09;;;;;;;4.00;2.13;;;14.80;99.90;;;;;;5027365;28;20084;-73
2022/07/12 06:04:35;;;;;;;2.63;2.10;;;14.80;99.90;;;;;;5031413;28;20041;-73
2022/07/12 06:07:01;;;;;;;3.90;2.28;;;14.80;99.90;;;;;;5031350;28;20109;-73
2022/07/12 06:09:27;;;;;;;7.03;2.78;;;14.80;99.90;;;;;;5031362;28;20025;-73
2022/07/12 06:11:53;;;;;;;4.70;2.28;;;14.90;99.90;;;;;;5030744;28;20361;-73
2022/07/12 06:14:18;;;;;;;2.55;2.20;;;15.20;99.90;;;;;;5031318;28;20469;-73
2022/07/12 06:16:44;;;;;;;6.85;2.50;;;15.10;99.90;;;;;;5031270;28;20017;-73
2022/07/12 06:19:10;;;;;;;6.13;2.50;;;15.30;99.90;;;;;;5031626;28;20065;-73
2022/07/12 06:21:35;;;;;;;4.25;2.22;;;15.40;99.90;;;;;;5033019;28;20033;-73
2022/07/12 06:24:01;;;;;;;7.55;2.40;;;15.50;99.90;;;;;;5035349;28;20032;-73
2022/07/12 06:26:27;;;;;;;5.82;2.17;;;15.60;99.90;;;;;;5035347;28;20115;-72
2022/07/12 06:28:53;;;;;;;3.40;2.05;;;15.70;99.90;;;;;;5035017;28;20511;-73
2022/07/12 06:31:18;;;;;;;3.70;1.90;;;15.80;99.90;;;;;;5034527;28;20101;-73
2022/07/12 06:33:44;;;;;;;4.28;1.90;;;16.10;99.90;;;;;;5033875;28;20057;-73
2022/07/12 06:36:09;;;;;;;3.55;1.95;;;16.10;99.90;;;;;;5035001;28;20502;-73
2022/07/12 06:38:35;;;;;;;4.38;2.10;;;16.20;99.90;;;;;;5035162;28;20398;-73
2022/07/12 06:41:00;;;;;;;4.95;2.13;;;16.20;99.90;;;;;;5034383;28;20060;-73
2022/07/12 06:43:26;;;;;;;2.70;1.50;;;16.30;99.90;;;;;;5035015;28;20490;-73
2022/07/12 06:45:52;;;;;;;3.30;2.00;;;16.60;99.90;;;;;;5034632;28;20109;-73
2022/07/12 06:48:18;;;;;;;4.30;1.90;;;16.60;99.90;;;;;;5033736;28;20573;-73
2022/07/12 06:50:44;;;;;;;5.28;1.73;;;16.90;99.90;;;;;;5025001;28;20026;-73
2022/07/12 06:53:11;;;;;;;2.42;1.90;;;17.10;99.90;;;;;;5015169;28;20391;-73
2022/07/12 06:55:37;;;;;;;4.07;2.17;;;17.30;99.90;;;;;;5014976;28;20018;-72
2022/07/12 06:58:03;;;;;;;3.42;1.80;;;17.00;99.90;;;;;;5014921;28;20029;-73
2022/07/12 07:00:28;;;;;;;2.85;1.73;;;17.30;99.90;;;;;;5014190;28;20033;-73
2022/07/12 07:02:54;;;;;;;2.20;1.70;;;17.60;99.90;;;;;;5014900;28;20080;-73
2022/07/12 07:05:19;;;;;;;2.60;1.90;;;17.60;99.90;;;;;;5014663;28;20044;-73
2022/07/12 07:07:45;;;;;;;2.13;1.70;;;17.70;99.90;;;;;;5015218;28;20102;-73
2022/07/12 07:10:11;;;;;;;3.33;1.80;;;17.90;99.90;;;;;;5014705;28;20062;-73
2022/07/12 07:12:36;;;;;;;2.15;1.70;;;18.10;99.90;;;;;;5014951;28;20089;-73
2022/07/12 07:15:02;;;;;;;4.28;1.95;;;18.40;99.90;;;;;;5013608;28;20443;-73
2022/07/12 07:17:28;;;;;;;2.05;1.63;;;18.40;99.90;;;;;;5013458;28;20454;-73
2022/07/12 07:19:53;;;;;;;2.13;1.80;;;18.20;99.90;;;;;;5014443;28;20399;-73
2022/07/12 07:22:19;;;;;;;1.73;1.63;;;18.10;99.90;;;;;;5012723;28;20022;-73
2022/07/12 07:24:46;;;;;;;2.67;2.00;;;18.50;99.90;;;;;;5014285;28;20109;-73
2022/07/12 07:27:12;;;;;;;1.90;1.60;;;18.80;99.90;;;;;;5014488;28;20033;-73
2022/07/12 07:32:22;;;;;;;2.10;1.67;;;18.50;99.90;;;;;;5013059;28;20087;-73
2022/07/12 07:34:48;;;;;;;3.05;1.52;;;18.50;99.90;;;;;;5014316;28;20076;-73
2022/07/12 07:37:13;;;;;;;4.47;1.63;;;18.50;99.90;;;;;;5014450;28;20100;-73
2022/07/12 07:39:39;;;;;;;2.05;1.52;;;18.40;99.90;;;;;;5014252;28;20433;-73
2022/07/12 07:42:05;;;;;;;2.95;1.60;;;18.20;99.90;;;;;;5013642;28;20029;-73
2022/07/12 07:44:31;;;;;;;2.55;1.50;;;17.90;99.90;;;;;;5014004;28;20042;-73
2022/07/12 07:46:56;;;;;;;2.35;1.50;;;17.90;99.90;;;;;;5013983;28;20125;-73
2022/07/12 07:49:22;;;;;;;2.03;1.65;;;17.80;99.90;;;;;;5013816;28;20073;-73
2022/07/12 07:51:47;;;;;;;2.38;1.55;;;18.00;99.90;;;;;;5013330;28;20076;-73
2022/07/12 07:54:13;;;;;;;2.85;1.35;;;18.00;99.90;;;;;;5013858;28;20369;-73
2022/07/12 07:56:39;;;;;;;1.50;1.40;;;17.90;99.90;;;;;;5012797;28;20091;-73
2022/07/12 07:59:05;;;;;;;3.60;1.55;;;17.90;99.90;;;;;;5013803;28;20030;-73
2022/07/12 08:01:45;;;;;;;3.05;1.55;;;18.40;99.90;;;;;;5013230;28;20068;-73
2022/07/12 08:04:18;;;;;;;2.75;1.60;;;18.70;99.90;;;;;;5013638;28;20026;-73
2022/07/12 08:06:44;;;;;;;2.80;1.50;;;18.60;99.90;;;;;;5013667;28;20021;-73
2022/07/12 08:09:11;;;;;;;2.78;1.60;;;18.50;99.90;;;;;;5013501;28;20018;-73
2022/07/12 08:11:36;;;;;;;1.50;1.30;;;18.80;99.90;;;;;;5012870;28;20432;-73
2022/07/12 08:14:03;;;;;;;1.83;1.30;;;19.00;99.90;;;;;;5013537;28;20022;-73
2022/07/12 08:16:29;;;;;;;1.90;1.60;;;18.70;99.90;;;;;;5013498;28;20568;-73
2022/07/12 08:18:55;;;;;;;2.50;1.30;;;18.40;99.90;;;;;;5013547;28;20100;-73
2022/07/12 08:21:21;;;;;;;2.42;1.45;;;18.50;99.90;;;;;;5013031;28;20028;-73
2022/07/12 08:23:46;;;;;;;1.52;1.40;;;18.30;99.90;;;;;;5013577;28;20034;-72
2022/07/12 08:26:12;;;;;;;2.65;1.77;;;18.60;99.90;;;;;;5013465;28;20030;-73
2022/07/12 08:28:37;;;;;;;3.92;1.60;;;18.50;99.90;;;;;;5008776;28;20026;-73
2022/07/12 08:31:03;;;;;;;2.95;1.35;;;18.60;99.90;;;;;;5022986;28;20018;-73
2022/07/12 08:33:29;;;;;;;1.85;1.60;;;18.40;99.90;;;;;;5013296;28;20072;-73
2022/07/12 08:35:55;;;;;;;1.67;1.50;;;18.70;99.90;;;;;;5013039;28;20022;-73
2022/07/12 08:38:20;;;;;;;1.83;1.33;;;18.90;99.90;;;;;;5013110;28;20030;-73
2022/07/12 08:40:46;;;;;;;1.75;1.20;;;18.80;99.90;;;;;;5012384;28;20026;-73
2022/07/12 08:43:12;;;;;;;2.60;1.40;;;18.60;99.90;;;;;;5012932;28;20153;-73
2022/07/12 08:45:40;;;;;;;1.30;1.08;;;18.50;99.90;;;;;;5012958;28;20400;-73
2022/07/12 08:48:06;;;;;;;1.50;1.10;;;18.70;99.90;;;;;;5012715;28;20040;-73
2022/07/12 08:50:32;;;;;;;1.25;1.13;;;18.60;99.90;;;;;;5012159;28;20018;-73
2022/07/12 08:52:58;;;;;;;1.30;1.02;;;18.60;99.90;;;;;;5012945;28;20120;-73
2022/07/12 08:55:30;;;;;;;1.23;0.90;;;18.70;99.90;;;;;;5012762;28;20491;-73
2022/07/12 08:57:59;;;;;;;1.10;1.00;;;19.10;99.90;;;;;;5012593;28;20022;-73
2022/07/12 09:00:26;;;;;;;1.58;1.30;;;19.30;99.90;;;;;;5012053;28;20026;-73
2022/07/12 09:03:00;;;;;;;1.58;1.00;;;18.90;99.90;;;;;;5013100;28;20032;-72
2022/07/12 09:05:27;;;;;;;2.22;1.00;;;18.80;99.90;;;;;;5012545;28;20041;-72
2022/07/12 09:08:04;;;;;;;1.50;1.17;;;18.80;99.90;;;;;;5012625;28;20424;-72
2022/07/12 09:10:30;;;;;;;1.02;0.95;;;18.90;99.90;;;;;;5011879;28;20068;-72
2022/07/12 09:12:56;;;;;;;2.17;1.02;;;19.40;99.90;;;;;;5012201;28;20049;-72
2022/07/12 09:15:24;;;;;;;1.05;0.95;;;20.10;99.90;;;;;;5012277;28;20104;-72
2022/07/12 09:18:01;;;;;;;1.80;0.90;;;20.50;99.90;;;;;;5011208;28;20026;-72
2022/07/12 09:20:32;;;;;;;0.90;0.82;;;19.60;99.90;;;;;;5011825;28;20388;-72
2022/07/12 09:23:06;;;;;;;1.52;0.93;;;19.60;99.90;;;;;;5012171;28;20030;-72
2022/07/12 09:25:32;;;;;;;0.82;0.82;;;19.40;99.90;;;;;;5012230;28;20101;-72
2022/07/12 09:28:00;;;;;;;1.25;0.90;;;19.60;99.90;;;;;;5012147;28;20061;-72
2022/07/12 09:30:27;;;;;;;2.20;0.80;;;19.70;99.90;;;;;;5011527;28;20112;-72
2022/07/12 09:36:06;;;;;;;2.30;0.90;;;20.10;99.90;;;;;;5012382;28;20105;-72
2022/07/12 09:38:33;;;;;;;1.42;0.90;;;20.90;99.90;;;;;;5012175;28;20026;-73
2022/07/12 09:40:59;;;;;;;1.63;0.85;;;20.60;99.90;;;;;;5011371;28;20040;-72
2022/07/12 09:43:26;;;;;;;1.27;0.90;;;20.20;99.90;;;;;;5012120;28;20092;-72
2022/07/12 09:45:52;;;;;;;0.93;0.80;;;19.90;99.90;;;;;;5011845;28;20113;-72
2022/07/12 09:48:19;;;;;;;0.90;0.80;;;20.30;99.90;;;;;;5011792;28;20060;-72
2022/07/12 09:50:48;;;;;;;0.80;0.80;;;20.40;99.90;;;;;;5011265;28;20022;-72
2022/07/12 09:53:20;;;;;;;0.82;0.60;;;20.30;99.90;;;;;;5010667;28;20025;-72
2022/07/12 09:55:52;;;;;;;0.82;0.82;;;20.20;99.90;;;;;;5010158;28;20036;-72
2022/07/12 09:58:26;;;;;;;0.80;0.80;;;21.10;99.90;;;;;;5011873;28;20018;-72
2022/07/12 10:00:53;;;;;;;1.27;1.00;;;21.20;99.90;;;;;;5011308;28;20018;-72
2022/07/12 10:03:26;;;;;;;2.25;0.90;;;21.40;99.90;;;;;;5010489;28;20040;-72
2022/07/12 10:05:52;;;;;;;0.80;0.80;;;21.50;99.90;;;;;;5012086;28;20108;-72
2022/07/12 10:08:20;;;;;;;0.90;0.90;;;21.90;99.90;;;;;;5011583;28;20018;-72
2022/07/12 10:10:46;;;;;;;0.63;0.63;;;22.10;99.90;;;;;;5011132;28;20030;-72
2022/07/12 10:13:13;;;;;;;1.25;0.90;;;22.20;99.90;;;;;;5011631;28;20052;-72
2022/07/12 10:15:43;;;;;;;1.23;1.05;;;22.00;99.90;;;;;;5011655;28;20065;-72
2022/07/12 10:18:16;;;;;;;0.70;0.70;;;21.70;99.90;;;;;;5011984;28;20488;-72
2022/07/12 10:20:43;;;;;;;1.45;0.80;;;21.80;99.90;;;;;;5011182;28;20029;-72
2022/07/12 10:23:34;;;;;;;0.90;0.88;;;22.10;99.90;;;;;;5011643;28;20453;-72
2022/07/12 10:26:20;;;;;;;1.83;0.90;;;22.20;99.90;;;;;;5011590;28;20040;-72
2022/07/12 10:29:06;;;;;;;0.98;0.90;;;22.00;99.90;;;;;;5011279;28;20069;-72
2022/07/12 10:31:37;;;;;;;0.70;0.70;;;22.20;99.90;;;;;;5010862;28;20034;-72
2022/07/12 10:34:23;;;;;;;0.70;0.70;;;22.40;99.90;;;;;;5011430;28;20069;-72
2022/07/12 10:36:55;;;;;;;1.75;0.77;;;22.60;99.90;;;;;;5011990;28;20491;-73
2022/07/12 10:39:22;;;;;;;0.75;0.70;;;22.60;99.90;;;;;;5011431;28;20231;-72
2022/07/12 10:42:13;;;;;;;0.95;0.80;;;22.40;99.90;;;;;;5010834;28;20069;-72
2022/07/12 10:44:41;;;;;;;1.65;0.77;;;22.60;99.90;;;;;;5011366;28;20026;-72
2022/07/12 10:47:08;;;;;;;0.80;0.80;;;22.70;99.90;;;;;;5011221;28;20033;-72
2022/07/12 10:49:35;;;;;;;1.13;0.75;;;22.60;99.90;;;;;;5011284;28;20025;-72
2022/07/12 10:52:10;;;;;;;1.00;0.80;;;22.30;99.90;;;;;;5010421;28;20026;-72
2022/07/12 10:54:41;;;;;;;0.75;0.75;;;22.80;99.90;;;;;;5011257;28;20114;-72
2022/07/12 10:57:07;;;;;;;0.82;0.80;;;22.60;99.90;;;;;;5011324;28;20018;-72
2022/07/12 10:59:35;;;;;;;0.80;0.80;;;22.60;99.90;;;;;;5011244;28;20018;-72
2022/07/12 11:02:01;;;;;;;1.10;0.80;;;22.70;99.90;;;;;;5010474;28;20034;-73
2022/07/12 11:04:27;;;;;;;1.02;0.80;;;23.60;99.90;;;;;;5011227;28;20088;-72
2022/07/12 11:06:58;;;;;;;1.48;0.90;;;24.30;99.90;;;;;;5011155;28;20026;-72
2022/07/12 11:09:25;;;;;;;0.80;0.73;;;23.50;99.90;;;;;;5014384;28;20026;-72
2022/07/12 11:11:51;;;;;;;1.10;1.00;;;23.10;99.90;;;;;;5014250;28;20026;-73
2022/07/12 11:14:21;;;;;;;0.90;0.90;;;22.50;99.90;;;;;;5015152;28;20029;-72
2022/07/12 11:16:48;;;;;;;1.10;0.70;;;22.10;99.90;;;;;;5014731;28;20026;-72
2022/07/12 11:19:15;;;;;;;0.90;0.90;;;22.70;99.90;;;;;;5014640;28;20026;-72
2022/07/12 11:21:45;;;;;;;2.53;0.93;;;23.30;99.90;;;;;;5009399;28;20034;-73
2022/07/12 11:24:21;;;;;;;1.13;0.82;;;23.60;99.90;;;;;;5006605;28;20030;-72
2022/07/12 11:26:46;;;;;;;;;;;23.60;99.90;;;;;;5014872;28;20022;-73
2022/07/12 11:29:12;;;;;;;0.93;0.88;;;23.50;99.90;;;;;;5013118;28;19975;-73
2022/07/12 11:31:38;;;;;;;0.80;0.80;;;23.10;99.90;;;;;;5013791;28;20113;-73
2022/07/12 11:34:03;;;;;;;0.70;0.70;;;23.70;99.90;;;;;;5014435;28;20084;-73
2022/07/12 11:36:30;;;;;;;1.00;0.90;;;23.70;99.90;;;;;;5014313;28;20033;-73
2022/07/12 11:38:55;;;;;;;1.83;0.80;;;23.60;99.90;;;;;;5014279;28;20417;-72
2022/07/12 11:41:22;;;;;;;2.20;0.80;;;23.40;99.90;;;;;;5013507;28;20041;-73
2022/07/12 11:43:48;;;;;;;1.27;0.80;;;23.60;99.90;;;;;;5013967;28;20462;-72
2022/07/12 11:46:13;;;;;;;0.98;0.80;;;24.10;99.90;;;;;;5014000;28;20097;-72
2022/07/12 11:48:42;;;;;;;1.65;0.70;;;23.80;99.90;;;;;;5013872;28;20030;-72
2022/07/12 11:51:12;;;;;;;0.90;0.70;;;24.20;99.90;;;;;;5013304;28;20560;-72
2022/07/12 11:53:38;;;;;;;1.65;0.82;;;24.40;99.90;;;;;;5014149;28;20033;-72
2022/07/12 11:56:06;;;;;;;0.93;0.75;;;24.20;99.90;;;;;;5013719;28;20488;-72
2022/07/12 11:58:33;;;;;;;0.88;0.80;;;24.30;99.90;;;;;;5014241;28;20030;-72
2022/07/12 12:01:00;;;;;;;0.70;0.70;;;24.40;99.90;;;;;;5008747;28;20181;-72
2022/07/12 12:03:26;;;;;;;2.13;0.80;;;24.60;99.90;;;;;;5009336;28;20076;-73
2022/07/12 12:05:54;;;;;;;1.42;0.80;;;24.90;99.90;;;;;;5013764;28;20030;-73
2022/07/12 12:08:20;;;;;;;1.05;0.95;;;25.10;99.90;;;;;;5013609;28;20109;-73
2022/07/12 12:10:59;;;;;;;0.95;0.80;;;25.40;99.90;;;;;;5013450;28;20097;-73
2022/07/12 12:13:26;;;;;;;2.05;0.70;;;25.50;99.90;;;;;;5013492;28;20022;-73
2022/07/12 12:15:56;;;;;;;0.70;0.70;;;25.90;99.90;;;;;;5013504;28;20080;-72
2022/07/12 12:18:35;;;;;;;1.10;0.90;;;25.40;99.90;;;;;;5013534;28;20037;-72
2022/07/12 12:21:03;;;;;;;0.70;0.70;;;25.10;99.90;;;;;;5012859;28;20022;-72
2022/07/12 12:23:29;;;;;;;1.02;0.80;;;25.30;99.90;;;;;;5013670;28;20018;-73
2022/07/12 12:26:15;;;;;;;1.17;0.80;;;25.70;99.90;;;;;;5013248;28;20159;-73
2022/07/12 12:28:51;;;;;;;0.93;0.80;;;25.70;99.90;;;;;;5013285;28;20025;-72
2022/07/12 12:31:19;;;;;;;0.70;0.70;;;25.40;99.90;;;;;;5012707;28;20029;-73
2022/07/12 12:33:53;;;;;;;1.00;0.90;;;25.50;99.90;;;;;;5008540;28;20033;-73
2022/07/12 12:36:20;;;;;;;1.10;0.70;;;26.10;99.90;;;;;;5012399;28;20045;-72
2022/07/12 12:38:48;;;;;;;1.65;0.80;;;26.70;99.90;;;;;;5013055;28;20026;-72
2022/07/12 12:41:14;;;;;;;1.60;0.80;;;26.80;99.90;;;;;;5012453;28;20026;-72
2022/07/12 12:43:41;;;;;;;0.80;0.80;;;26.40;99.90;;;;;;5013058;28;20022;-73
2022/07/12 12:46:07;;;;;;;1.40;0.70;;;25.60;99.90;;;;;;5017633;28;20032;-72
2022/07/12 12:48:34;;;;;;;1.30;0.80;;;25.80;99.90;;;;;;5032626;28;20037;-72
2022/07/12 12:51:06;;;;;;;1.08;0.80;;;26.30;99.90;;;;;;5019491;28;20018;-73
2022/07/12 12:53:32;;;;;;;0.93;0.90;;;26.40;99.90;;;;;;5012726;28;20467;-72
2022/07/12 12:55:58;;;;;;;1.60;0.80;;;26.10;99.90;;;;;;5012808;28;20460;-73